createdAt,value
2022-09-14T00:01:28.905Z,14.40
2022-09-14T00:04:18.731Z,14.40
2022-09-14T00:07:06.101Z,14.40
2022-09-14T00:09:53.258Z,14.30
2022-09-14T00:12:40.632Z,14.30
2022-09-14T00:15:28.599Z,14.30
2022-09-14T00:18:17.027Z,14.30
2022-09-14T00:21:05.975Z,14.20
2022-09-14T00:23:53.562Z,14.10
2022-09-14T00:26:41.090Z,14.10
2022-09-14T00:29:28.227Z,14.10
2022-09-14T00:32:15.639Z,14.10
2022-09-14T00:35:05.000Z,14.00
2022-09-14T00:37:52.473Z,14.00
2022-09-14T00:40:40.087Z,14.00
2022-09-14T00:43:27.354Z,13.90
2022-09-14T00:46:14.409Z,13.80
2022-09-14T00:49:03.259Z,13.90
2022-09-14T00:51:56.989Z,13.80
2022-09-14T00:54:49.120Z,13.80
2022-09-14T00:57:39.977Z,13.80
2022-09-14T01:00:29.519Z,13.70
2022-09-14T01:03:16.946Z,13.70
2022-09-14T01:06:15.542Z,13.70
2022-09-14T01:14:21.563Z,13.50
2022-09-14T01:17:13.725Z,13.50
2022-09-14T01:20:12.496Z,13.50
2022-09-14T01:23:09.945Z,13.50
2022-09-14T01:26:22.274Z,13.50
2022-09-14T01:29:16.946Z,13.40
2022-09-14T01:32:10.030Z,13.40
2022-09-14T01:35:02.753Z,13.40
2022-09-14T01:37:54.891Z,13.40
2022-09-14T01:40:46.934Z,13.40
2022-09-14T01:43:39.728Z,13.30
2022-09-14T01:46:31.839Z,13.30
2022-09-14T01:49:23.426Z,13.30
2022-09-14T01:52:15.374Z,13.30
2022-09-14T01:55:08.435Z,13.30
2022-09-14T01:58:02.258Z,13.30
2022-09-14T02:00:50.917Z,13.30
2022-09-14T02:03:43.854Z,13.30
2022-09-14T02:06:35.755Z,13.30
2022-09-14T02:09:26.630Z,13.20
2022-09-14T02:12:14.006Z,13.20
2022-09-14T02:15:01.305Z,13.20
2022-09-14T02:17:48.856Z,13.20
2022-09-14T02:20:42.785Z,13.20
2022-09-14T02:23:30.643Z,13.10
2022-09-14T02:26:18.780Z,13.10
2022-09-14T02:29:06.787Z,13.20
2022-09-14T02:32:11.088Z,13.10
2022-09-14T02:35:04.441Z,13.10
2022-09-14T02:37:58.902Z,13.10
2022-09-14T02:40:56.095Z,13.10
2022-09-14T02:43:50.441Z,13.10
2022-09-14T02:46:45.730Z,13.10
2022-09-14T02:49:40.209Z,13.10
2022-09-14T02:52:34.149Z,13.00
2022-09-14T02:55:26.489Z,13.10
2022-09-14T02:58:15.441Z,13.10
2022-09-14T03:01:02.918Z,13.10
2022-09-14T03:03:50.635Z,13.00
2022-09-14T03:06:37.984Z,13.10
2022-09-14T03:09:25.403Z,13.00
2022-09-14T03:17:09.154Z,13.10
2022-09-14T03:19:56.171Z,13.00
2022-09-14T03:22:43.399Z,13.00
2022-09-14T03:25:30.846Z,12.90
2022-09-14T03:28:18.042Z,13.00
2022-09-14T03:31:07.703Z,13.00
2022-09-14T03:33:57.831Z,13.00
2022-09-14T03:36:45.095Z,12.90
2022-09-14T03:39:32.483Z,12.90
2022-09-14T03:42:19.762Z,12.90
2022-09-14T03:45:08.144Z,12.90
2022-09-14T03:47:55.150Z,13.00
2022-09-14T03:50:43.732Z,12.90
2022-09-14T03:53:30.753Z,12.80
2022-09-14T03:56:20.022Z,12.90
2022-09-14T03:59:09.768Z,12.90
2022-09-14T04:01:56.884Z,12.80
2022-09-14T04:04:43.900Z,12.80
2022-09-14T04:07:32.330Z,12.80
2022-09-14T04:10:19.872Z,12.80
2022-09-14T04:13:07.215Z,12.80
2022-09-14T04:15:58.643Z,12.80
2022-09-14T04:18:45.986Z,12.80
2022-09-14T04:21:33.628Z,12.80
2022-09-14T04:24:25.312Z,12.80
2022-09-14T04:27:15.154Z,12.70
2022-09-14T04:30:02.203Z,12.70
2022-09-14T04:32:58.327Z,12.70
2022-09-14T04:35:45.609Z,12.70
2022-09-14T04:38:33.600Z,12.60
2022-09-14T04:41:23.223Z,12.60
2022-09-14T04:44:10.887Z,12.60
2022-09-14T04:46:58.500Z,12.60
2022-09-14T04:49:46.098Z,12.60
2022-09-14T04:52:33.354Z,12.60
2022-09-14T04:55:20.316Z,12.70
2022-09-14T04:58:09.119Z,12.70
2022-09-14T05:00:56.598Z,12.60
2022-09-14T05:03:44.180Z,12.70
2022-09-14T05:06:32.823Z,12.60
2022-09-14T05:09:20.224Z,12.60
2022-09-14T05:12:08.146Z,12.60
2022-09-14T05:14:57.050Z,12.60
2022-09-14T05:17:44.260Z,12.70
2022-09-14T05:20:31.495Z,12.70
2022-09-14T05:23:18.899Z,12.70
2022-09-14T05:26:12.611Z,12.80
2022-09-14T05:29:02.299Z,12.80
2022-09-14T05:31:51.016Z,12.90
2022-09-14T05:34:38.429Z,12.90
2022-09-14T05:37:25.607Z,13.00
2022-09-14T05:40:12.970Z,13.00
2022-09-14T05:43:00.164Z,13.00
2022-09-14T05:45:47.101Z,13.10
2022-09-14T05:48:36.162Z,13.10
2022-09-14T05:51:25.245Z,13.00
2022-09-14T05:54:12.271Z,13.20
2022-09-14T05:56:59.409Z,13.20
2022-09-14T06:04:48.059Z,13.30
2022-09-14T06:07:35.345Z,13.30
2022-09-14T06:10:23.381Z,13.30
2022-09-14T06:13:10.933Z,13.40
2022-09-14T06:16:02.073Z,13.40
2022-09-14T06:18:50.533Z,13.50
2022-09-14T06:21:39.166Z,13.60
2022-09-14T06:24:26.621Z,13.70
2022-09-14T06:27:14.046Z,13.80
2022-09-14T06:30:01.213Z,13.90
2022-09-14T06:32:48.618Z,14.00
2022-09-14T06:35:35.557Z,14.10
2022-09-14T06:38:24.211Z,14.20
2022-09-14T06:41:21.634Z,14.20
2022-09-14T06:44:08.638Z,14.30
2022-09-14T06:46:55.921Z,14.30
2022-09-14T06:49:43.141Z,14.40
2022-09-14T06:52:33.677Z,14.60
2022-09-14T06:55:22.462Z,14.70
2022-09-14T06:58:09.680Z,14.90
2022-09-14T07:01:01.952Z,15.00
2022-09-14T07:03:52.231Z,15.10
2022-09-14T07:06:42.245Z,15.10
2022-09-14T07:10:45.627Z,15.10
2022-09-14T07:13:34.587Z,15.20
2022-09-14T07:16:22.039Z,15.30
2022-09-14T07:19:12.110Z,15.20
2022-09-14T07:22:01.841Z,15.20
2022-09-14T07:24:49.323Z,15.20
2022-09-14T07:27:38.623Z,15.20
2022-09-14T07:30:28.053Z,15.20
2022-09-14T07:33:15.257Z,15.20
2022-09-14T07:36:06.818Z,15.30
2022-09-14T07:38:54.422Z,15.50
2022-09-14T07:41:41.832Z,15.60
2022-09-14T07:44:29.458Z,15.70
2022-09-14T07:47:18.130Z,15.70
2022-09-14T07:50:05.981Z,15.80
2022-09-14T07:57:39.630Z,16.40
2022-09-14T08:00:31.166Z,16.70
2022-09-14T08:03:19.794Z,16.70
2022-09-14T08:06:08.189Z,16.50
2022-09-14T08:08:55.982Z,16.80
2022-09-14T08:11:42.879Z,16.80
2022-09-14T08:14:29.883Z,17.10
2022-09-14T08:17:16.939Z,17.10
2022-09-14T08:20:06.248Z,17.00
2022-09-14T08:22:53.402Z,17.10
2022-09-14T08:25:40.149Z,17.50
2022-09-14T08:28:27.510Z,17.50
2022-09-14T08:31:16.252Z,17.60
2022-09-14T08:34:04.601Z,17.90
2022-09-14T08:36:52.753Z,18.10
2022-09-14T08:39:39.939Z,18.10
2022-09-14T08:42:27.099Z,18.20
2022-09-14T08:45:17.427Z,18.50
2022-09-14T08:48:06.137Z,18.80
2022-09-14T08:50:54.089Z,18.40
2022-09-14T08:53:46.961Z,18.30
2022-09-14T08:56:37.295Z,18.70
2022-09-14T08:59:38.030Z,18.60
2022-09-14T09:02:42.026Z,18.80
2022-09-14T09:05:40.446Z,18.90
2022-09-14T09:08:34.254Z,19.10
2022-09-14T09:11:27.082Z,18.80
2022-09-14T09:14:19.965Z,18.30
2022-09-14T09:17:15.714Z,18.20
2022-09-14T09:20:10.925Z,18.10
2022-09-14T09:23:07.183Z,18.10
2022-09-14T09:25:58.727Z,18.00
2022-09-14T09:28:49.494Z,18.10
2022-09-14T09:31:39.522Z,18.30
2022-09-14T09:34:45.235Z,18.00
2022-09-14T09:37:55.352Z,17.90
2022-09-14T09:40:55.052Z,18.10
2022-09-14T09:43:59.470Z,18.00
2022-09-14T09:46:49.333Z,17.90
2022-09-14T09:49:39.638Z,18.10
2022-09-14T09:52:26.862Z,18.30
2022-09-14T09:55:20.158Z,18.20
2022-09-14T09:58:22.930Z,18.30
2022-09-14T10:01:20.763Z,18.30
2022-09-14T10:04:18.306Z,18.40
2022-09-14T10:07:05.719Z,18.20
2022-09-14T10:09:59.444Z,18.30
2022-09-14T10:12:49.074Z,18.40
2022-09-14T10:15:37.069Z,18.20
2022-09-14T10:18:28.126Z,18.40
2022-09-14T10:21:17.275Z,18.50
2022-09-14T10:24:07.811Z,18.20
2022-09-14T10:26:55.126Z,18.40
2022-09-14T10:29:43.949Z,18.40
2022-09-14T10:32:34.225Z,18.60
2022-09-14T10:35:26.600Z,18.40
2022-09-14T10:38:31.693Z,18.40
2022-09-14T10:41:26.259Z,18.50
2022-09-14T10:44:46.294Z,18.40
2022-09-14T10:47:54.263Z,18.60
2022-09-14T10:50:54.062Z,18.50
2022-09-14T10:53:51.752Z,18.60
2022-09-14T10:56:55.144Z,18.60
2022-09-14T10:59:53.216Z,18.60
2022-09-14T11:02:58.477Z,18.40
2022-09-14T11:05:55.912Z,19.00
2022-09-14T11:08:47.871Z,19.20
2022-09-14T11:11:44.994Z,19.50
2022-09-14T11:14:47.956Z,19.80
2022-09-14T11:17:56.129Z,19.40
2022-09-14T11:20:53.579Z,19.40
2022-09-14T11:23:48.257Z,19.60
2022-09-14T11:26:42.164Z,19.30
2022-09-14T11:29:33.394Z,19.30
2022-09-14T11:32:25.638Z,19.00
2022-09-14T11:35:18.336Z,18.90
2022-09-14T11:38:14.218Z,19.00
2022-09-14T11:41:08.656Z,19.30
2022-09-14T11:44:00.549Z,19.50
2022-09-14T11:46:54.900Z,19.50
2022-09-14T11:49:56.106Z,19.30
2022-09-14T11:52:43.572Z,19.60
2022-09-14T11:55:32.591Z,19.90
2022-09-14T11:58:23.391Z,19.90
2022-09-14T12:01:35.611Z,19.80
2022-09-14T12:04:22.959Z,19.90
2022-09-14T12:07:10.249Z,19.80
2022-09-14T12:10:20.700Z,19.80
2022-09-14T12:13:30.514Z,19.60
2022-09-14T12:16:17.719Z,19.50
2022-09-14T12:19:06.012Z,19.20
2022-09-14T12:21:53.298Z,19.10
2022-09-14T12:24:40.795Z,19.20
2022-09-14T12:27:32.255Z,19.00
2022-09-14T12:30:57.013Z,19.20
2022-09-14T12:34:14.155Z,19.50
2022-09-14T12:37:30.266Z,19.60
2022-09-14T12:40:34.678Z,19.60
2022-09-14T12:43:57.411Z,19.50
2022-09-14T12:46:44.864Z,19.50
2022-09-14T12:49:36.254Z,19.40
2022-09-14T12:52:40.491Z,19.60
2022-09-14T12:55:42.521Z,19.60
2022-09-14T12:58:53.477Z,19.70
2022-09-14T13:01:50.111Z,19.90
2022-09-14T13:04:40.756Z,20.00
2022-09-14T13:07:37.484Z,19.90
2022-09-14T13:10:28.662Z,20.00
2022-09-14T13:13:20.401Z,19.90
2022-09-14T13:16:08.368Z,19.50
2022-09-14T13:19:02.420Z,19.40
2022-09-14T13:21:53.620Z,19.30
2022-09-14T13:30:03.740Z,19.00
2022-09-14T13:34:06.651Z,19.10
2022-09-14T13:36:56.605Z,19.20
2022-09-14T13:39:51.061Z,19.30
2022-09-14T13:42:38.592Z,19.30
2022-09-14T13:45:26.254Z,19.20
2022-09-14T13:48:15.770Z,19.10
2022-09-14T13:51:12.937Z,19.20
2022-09-14T13:54:18.903Z,19.20
2022-09-14T13:57:14.023Z,19.20
2022-09-14T14:00:08.042Z,19.10
2022-09-14T14:03:02.872Z,19.20
2022-09-14T14:05:50.055Z,19.20
2022-09-14T14:08:39.589Z,19.10
2022-09-14T14:11:31.039Z,19.20
2022-09-14T14:14:28.989Z,19.10
2022-09-14T14:17:32.744Z,19.10
2022-09-14T14:20:35.392Z,19.20
2022-09-14T14:23:23.583Z,19.20
2022-09-14T14:30:03.537Z,18.80
2022-09-14T14:32:51.770Z,18.90
2022-09-14T14:35:39.007Z,18.90
2022-09-14T14:38:26.414Z,18.70
2022-09-14T14:41:16.322Z,18.70
2022-09-14T14:44:04.062Z,18.60
2022-09-14T14:46:52.801Z,18.70
2022-09-14T14:49:40.227Z,18.70
2022-09-14T14:52:27.248Z,18.70
2022-09-14T14:55:14.860Z,18.70
2022-09-14T14:59:17.661Z,18.50
2022-09-14T15:02:06.832Z,18.50
2022-09-14T15:04:54.179Z,18.50
2022-09-14T15:07:41.824Z,18.50
2022-09-14T15:10:30.567Z,18.50
2022-09-14T15:13:17.803Z,18.40
2022-09-14T15:16:04.774Z,18.40
2022-09-14T15:18:53.119Z,18.40
2022-09-14T15:21:41.413Z,18.30
2022-09-14T15:24:28.319Z,18.00
2022-09-14T15:27:15.763Z,18.00
2022-09-14T15:30:03.729Z,18.00
2022-09-14T15:33:00.181Z,17.90
2022-09-14T15:35:55.822Z,18.00
2022-09-14T15:38:43.112Z,18.00
2022-09-14T15:41:30.196Z,17.90
2022-09-14T15:44:18.042Z,17.90
2022-09-14T15:48:22.818Z,17.90
2022-09-14T15:51:12.519Z,17.90
2022-09-14T15:53:59.860Z,18.00
2022-09-14T15:56:50.326Z,17.90
2022-09-14T15:59:37.410Z,17.90
2022-09-14T16:06:53.063Z,18.00
2022-09-14T16:09:41.135Z,17.90
2022-09-14T16:12:28.088Z,18.00
2022-09-14T16:15:15.640Z,17.90
2022-09-14T16:18:02.903Z,17.80
2022-09-14T16:20:49.977Z,17.90
2022-09-14T16:23:41.093Z,17.90
2022-09-14T16:26:29.896Z,17.90
2022-09-14T16:29:19.730Z,17.80
2022-09-14T16:32:07.209Z,17.80
2022-09-14T16:34:54.093Z,17.80
2022-09-14T16:37:41.326Z,17.70
2022-09-14T16:40:29.444Z,17.70
2022-09-14T16:43:16.373Z,17.70
2022-09-14T16:46:05.841Z,17.70
2022-09-14T16:48:53.187Z,17.70
2022-09-14T16:51:40.997Z,17.70
2022-09-14T16:54:29.705Z,17.60
2022-09-14T16:57:18.103Z,17.60
2022-09-14T17:00:06.349Z,17.60
2022-09-14T17:02:53.466Z,17.60
2022-09-14T17:05:40.530Z,17.50
2022-09-14T17:08:27.498Z,17.50
2022-09-14T17:11:16.597Z,17.50
2022-09-14T17:14:06.126Z,17.40
2022-09-14T17:16:53.262Z,17.40
2022-09-14T17:20:31.863Z,17.40
2022-09-14T17:23:18.967Z,17.40
2022-09-14T17:26:08.692Z,17.30
2022-09-14T17:28:57.644Z,17.20
2022-09-14T17:31:46.875Z,17.30
2022-09-14T17:34:34.014Z,17.20
2022-09-14T17:37:21.393Z,17.20
2022-09-14T17:40:10.568Z,17.10
2022-09-14T17:42:57.649Z,17.10
2022-09-14T17:45:53.858Z,17.10
2022-09-14T17:48:43.622Z,17.00
2022-09-14T17:51:31.302Z,17.00
2022-09-14T17:54:19.194Z,16.90
2022-09-14T17:57:06.448Z,16.90
2022-09-14T17:59:53.741Z,16.90
2022-09-14T18:02:40.973Z,16.90
2022-09-14T18:05:29.777Z,16.90
2022-09-14T18:08:16.815Z,16.90
2022-09-14T18:11:09.182Z,16.80
2022-09-14T18:13:56.630Z,16.70
2022-09-14T18:16:45.154Z,16.60
2022-09-14T18:19:32.208Z,16.70
2022-09-14T18:22:20.993Z,16.60
2022-09-14T18:25:09.914Z,16.60
2022-09-14T18:27:59.999Z,16.60
2022-09-14T18:30:47.520Z,16.60
2022-09-14T18:33:36.078Z,16.60
2022-09-14T18:36:23.782Z,16.60
2022-09-14T18:39:12.931Z,16.60
2022-09-14T18:42:00.173Z,16.50
2022-09-14T18:44:49.775Z,16.50
2022-09-14T18:47:36.777Z,16.50
2022-09-14T18:50:23.863Z,16.50
2022-09-14T18:53:11.241Z,16.40
2022-09-14T18:56:03.117Z,16.40
2022-09-14T18:58:50.155Z,16.30
2022-09-14T19:01:37.828Z,16.30
2022-09-14T19:04:25.009Z,16.40
2022-09-14T19:07:12.434Z,16.30
2022-09-14T19:10:00.336Z,16.30
2022-09-14T19:13:13.649Z,16.30
2022-09-14T19:16:00.927Z,16.20
2022-09-14T19:18:50.631Z,16.20
2022-09-14T19:21:37.784Z,16.10
2022-09-14T19:24:27.415Z,16.10
2022-09-14T19:27:14.533Z,16.10
2022-09-14T19:30:13.591Z,16.10
2022-09-14T19:33:01.033Z,16.10
2022-09-14T19:35:48.304Z,16.10
2022-09-14T19:38:36.022Z,16.10
2022-09-14T19:41:23.154Z,16.00
2022-09-14T19:44:11.930Z,16.00
2022-09-14T19:47:00.335Z,15.90
2022-09-14T19:50:37.815Z,16.00
2022-09-14T19:53:25.215Z,16.00
2022-09-14T19:56:14.590Z,16.00
2022-09-14T19:59:03.224Z,15.90
2022-09-14T20:01:51.371Z,15.90
2022-09-14T20:04:40.198Z,15.80
2022-09-14T20:07:27.371Z,15.80
2022-09-14T20:10:14.583Z,15.70
2022-09-14T20:13:01.602Z,15.70
2022-09-14T20:15:48.812Z,15.70
2022-09-14T20:19:03.395Z,15.70
2022-09-14T20:21:53.214Z,15.70
2022-09-14T20:24:41.014Z,15.40
2022-09-14T20:27:28.259Z,15.40
2022-09-14T20:30:15.473Z,15.50
2022-09-14T20:33:02.859Z,15.40
2022-09-14T20:35:58.519Z,15.30
2022-09-14T20:38:50.382Z,15.30
2022-09-14T20:41:38.265Z,15.40
2022-09-14T20:44:25.510Z,15.30
2022-09-14T20:47:13.341Z,15.20
2022-09-14T20:50:00.531Z,15.20
2022-09-14T20:52:47.830Z,15.10
2022-09-14T20:55:36.546Z,15.10
2022-09-14T20:58:23.835Z,15.00
2022-09-14T21:01:12.982Z,15.00
2022-09-14T21:04:11.443Z,15.00
2022-09-14T21:06:58.564Z,15.00
2022-09-14T21:09:46.147Z,14.90
2022-09-14T21:12:34.803Z,14.90
2022-09-14T21:15:22.034Z,14.90
2022-09-14T21:18:09.418Z,14.90
2022-09-14T21:20:59.968Z,14.90
2022-09-14T21:23:50.328Z,14.90
2022-09-14T21:26:42.423Z,14.90
2022-09-14T21:29:31.121Z,14.80
2022-09-14T21:32:18.361Z,14.80
2022-09-14T21:35:06.570Z,14.80
2022-09-14T21:37:53.913Z,14.80
2022-09-14T21:40:45.650Z,14.80
2022-09-14T21:43:32.935Z,14.80
2022-09-14T21:46:21.687Z,14.70
2022-09-14T21:54:28.324Z,14.70
2022-09-14T21:57:15.399Z,14.70
2022-09-14T22:00:03.337Z,14.70
2022-09-14T22:02:55.623Z,14.80
2022-09-14T22:05:42.675Z,14.70
2022-09-14T22:08:32.061Z,14.70
2022-09-14T22:11:23.317Z,14.80
2022-09-14T22:14:14.589Z,14.70
2022-09-14T22:17:02.117Z,14.70
2022-09-14T22:19:51.953Z,14.70
2022-09-14T22:22:39.597Z,14.60
2022-09-14T22:25:28.105Z,14.60
2022-09-14T22:28:15.255Z,14.60
2022-09-14T22:31:03.020Z,14.60
2022-09-14T22:33:51.025Z,14.60
2022-09-14T22:36:40.209Z,14.60
2022-09-14T22:39:27.509Z,14.60
2022-09-14T22:42:14.778Z,14.60
2022-09-14T22:45:02.129Z,14.60
2022-09-14T22:47:49.279Z,14.60
2022-09-14T22:50:36.621Z,14.60
2022-09-14T22:53:26.529Z,14.60
2022-09-14T22:56:18.167Z,14.60
2022-09-14T22:59:06.990Z,14.60
2022-09-14T23:01:54.239Z,14.60
2022-09-14T23:04:41.945Z,14.60
2022-09-14T23:07:29.240Z,14.50
2022-09-14T23:10:18.100Z,14.40
2022-09-14T23:13:05.359Z,14.40
2022-09-14T23:15:52.823Z,14.40
2022-09-14T23:18:40.118Z,14.40
2022-09-14T23:21:28.321Z,14.40
2022-09-14T23:24:15.966Z,14.40
2022-09-14T23:27:05.023Z,14.40
2022-09-14T23:29:52.315Z,14.40
2022-09-14T23:32:39.517Z,14.40
2022-09-14T23:35:27.451Z,14.30
2022-09-14T23:38:14.591Z,14.40
2022-09-14T23:41:02.087Z,14.30
2022-09-14T23:43:50.869Z,14.30
2022-09-14T23:46:38.289Z,14.20
2022-09-14T23:54:43.711Z,14.10
2022-09-14T23:57:31.382Z,14.10
